Time;durP1;ratioP1;P1;durP2;ratioP2;P2;SDS_P1;SDS_P2;PMS_P1;PMS_P2;Temp;Humidity;BMP_temperature;BMP_pressure;BME280_temperature;BME280_humidity;BME280_pressure;Samples;Min_cycle;Max_cycle;Signal;HPM_P1;HPM_P2
2022/08/20 00:02:22;;;;;;;1.40;1.00;;;;;;;29.09;40.91;99334.63;5109613;28;20055;-61
2022/08/20 00:04:48;;;;;;;1.48;1.00;;;;;;;29.08;40.95;99329.41;5108517;28;20047;-67
2022/08/20 00:07:14;;;;;;;1.60;1.10;;;;;;;29.08;40.86;99332.22;5109581;28;20495;-61
2022/08/20 00:09:40;;;;;;;1.50;1.10;;;;;;;29.10;40.76;99338.25;5109614;28;20051;-61
2022/08/20 00:12:06;;;;;;;1.67;1.00;;;;;;;29.11;41.03;99345.47;5109356;28;20089;-67
2022/08/20 00:14:32;;;;;;;2.38;1.25;;;;;;;29.10;40.67;99344.66;5109535;28;20054;-61
2022/08/20 00:16:58;;;;;;;2.25;1.20;;;;;;;29.10;40.86;99341.84;5109671;28;20040;-67
2022/08/20 00:19:23;;;;;;;2.35;1.00;;;;;;;29.11;40.92;99345.47;5109789;28;20449;-61
2022/08/20 00:21:49;;;;;;;1.23;1.00;;;;;;;29.08;40.86;99333.06;5109366;28;20051;-61
2022/08/20 00:24:14;;;;;;;1.73;1.17;;;;;;;29.10;40.92;99336.22;5109460;28;20046;-67
2022/08/20 00:26:40;;;;;;;1.75;1.15;;;;;;;29.09;40.68;99337.44;5109474;28;20035;-61
2022/08/20 00:29:05;;;;;;;1.80;1.20;;;;;;;29.11;40.87;99339.81;5091051;28;20052;-67
2022/08/20 00:31:31;;;;;;;1.58;1.00;;;;;;;29.11;40.85;99335.00;5109323;28;20043;-67
2022/08/20 00:33:56;;;;;;;2.05;1.17;;;;;;;29.11;40.79;99335.00;5109357;28;20461;-66
2022/08/20 00:36:22;;;;;;;2.00;1.10;;;;;;;29.10;40.83;99329.78;5109330;28;20035;-67
2022/08/20 00:38:48;;;;;;;1.60;1.20;;;;;;;29.11;40.84;99339.81;5109250;28;20047;-61
2022/08/20 00:41:18;;;;;;;1.63;1.10;;;;;;;29.11;41.01;99337.00;5109152;28;20522;-61
2022/08/20 00:43:47;;;;;;;1.60;1.02;;;;;;;29.09;41.02;99337.44;5109200;28;20047;-61
2022/08/20 00:46:15;;;;;;;1.88;1.30;;;;;;;29.10;41.02;99335.44;5109187;28;20070;-61
2022/08/20 00:48:43;;;;;;;1.75;1.30;;;;;;;29.11;40.94;99332.16;5108905;28;20521;-67
2022/08/20 00:51:32;;;;;;;2.17;1.42;;;;;;;29.11;40.62;99329.34;5109177;28;20048;-67
2022/08/20 00:54:09;;;;;;;2.17;1.10;;;;;;;29.11;40.86;99326.53;5093428;28;20054;-67
2022/08/20 00:56:36;;;;;;;1.60;1.00;;;;;;;29.11;40.71;99332.16;5109035;28;20055;-67
2022/08/20 00:59:10;;;;;;;1.65;1.10;;;;;;;29.11;41.01;99328.56;5108762;28;20080;-67
2022/08/20 01:01:37;;;;;;;1.75;1.10;;;;;;;29.10;40.76;99329.78;5108866;28;20583;-61
2022/08/20 01:04:04;;;;;;;1.83;1.20;;;;;;;29.11;40.71;99320.13;5109134;28;20047;-67
2022/08/20 01:06:30;;;;;;;1.60;1.10;;;;;;;29.11;40.82;99322.94;5109162;28;20048;-61
2022/08/20 01:08:56;;;;;;;1.85;1.27;;;;;;;29.09;40.87;99320.56;5108725;28;20089;-67
2022/08/20 01:11:31;;;;;;;1.98;1.02;;;;;;;29.10;40.71;99316.50;5108876;28;20098;-61
2022/08/20 01:13:57;;;;;;;1.30;1.00;;;;;;;29.11;40.91;99320.13;5090563;28;20054;-61
2022/08/20 01:16:28;;;;;;;1.73;1.17;;;;;;;29.10;40.75;99322.13;5110957;28;20052;-67
2022/08/20 01:18:56;;;;;;;2.15;1.30;;;;;;;29.11;40.76;99325.75;5112258;28;20051;-61
2022/08/20 01:21:26;;;;;;;2.10;1.30;;;;;;;29.10;40.87;99322.13;5112360;28;20502;-67
2022/08/20 01:24:00;;;;;;;2.33;1.10;;;;;;;29.11;40.87;99322.94;5112118;28;20050;-67
2022/08/20 01:26:33;;;;;;;1.65;1.10;;;;;;;29.10;40.74;99329.78;5112290;28;20047;-67
2022/08/20 01:29:03;;;;;;;;;;;;;;;29.17;40.78;99326.81;5112555;28;20157;-61
2022/08/20 01:31:31;;;;;;;1.45;1.00;;;;;;;29.14;40.82;99338.94;5112170;28;19938;-61
2022/08/20 01:33:59;;;;;;;1.58;1.10;;;;;;;29.10;40.79;99338.25;5112081;28;20124;-61
2022/08/20 01:36:47;;;;;;;1.63;1.10;;;;;;;29.10;40.68;99335.44;5112262;28;20062;-67
2022/08/20 01:39:22;;;;;;;1.70;1.08;;;;;;;29.08;40.84;99337.88;5111786;28;20044;-66
2022/08/20 01:42:22;;;;;;;1.35;1.00;;;;;;;29.09;40.83;99337.44;5111923;28;20117;-67
2022/08/20 01:44:48;;;;;;;2.08;1.27;;;;;;;29.10;40.93;99346.69;5111890;28;20048;-61
2022/08/20 01:47:14;;;;;;;1.80;1.27;;;;;;;29.09;40.86;99339.47;5111908;28;20416;-67
2022/08/20 01:49:49;;;;;;;1.60;1.20;;;;;;;29.08;40.86;99340.69;5111698;28;20068;-61
2022/08/20 01:52:27;;;;;;;1.77;1.10;;;;;;;29.08;40.88;99344.31;5111769;28;20070;-61
2022/08/20 01:54:53;;;;;;;1.60;1.10;;;;;;;29.10;40.85;99332.59;5111727;28;20486;-67
2022/08/20 01:57:19;;;;;;;1.48;1.10;;;;;;;29.09;40.88;99331.03;5111816;28;20096;-61
2022/08/20 01:59:48;;;;;;;1.50;1.10;;;;;;;29.09;41.10;99336.66;5111574;28;20066;-61
2022/08/20 02:02:14;;;;;;;2.15;1.20;;;;;;;29.08;40.95;99330.22;5111669;28;20039;-67
2022/08/20 02:04:40;;;;;;;1.70;1.20;;;;;;;29.08;40.88;99335.03;5111596;28;20569;-67
2022/08/20 02:07:11;;;;;;;1.70;1.13;;;;;;;29.09;40.96;99328.22;5111424;28;20071;-61
2022/08/20 02:09:38;;;;;;;2.05;1.20;;;;;;;29.09;40.99;99331.03;5111611;28;20043;-61
2022/08/20 02:12:05;;;;;;;1.48;0.98;;;;;;;29.09;40.92;99333.84;5111550;28;20043;-67
2022/08/20 02:14:32;;;;;;;1.70;1.15;;;;;;;29.08;40.85;99332.22;5111581;28;20370;-66
2022/08/20 02:16:58;;;;;;;2.05;1.35;;;;;;;29.08;40.86;99327.41;5111279;28;20039;-61
2022/08/20 02:19:44;;;;;;;1.60;1.10;;;;;;;29.08;40.94;99324.59;5111240;28;20040;-67
2022/08/20 02:22:20;;;;;;;1.80;1.13;;;;;;;29.09;40.89;99325.41;5111213;28;20134;-61
2022/08/20 02:24:46;;;;;;;1.35;1.00;;;;;;;29.05;40.82;99314.97;5111293;28;20165;-61
2022/08/20 02:27:12;;;;;;;1.63;1.25;;;;;;;29.07;40.88;99317.34;5109883;28;20564;-67
2022/08/20 02:29:38;;;;;;;2.10;1.20;;;;;;;29.06;41.02;99316.56;5111266;28;20044;-66
2022/08/20 02:32:05;;;;;;;1.90;1.23;;;;;;;29.06;40.75;99308.13;5111191;28;20040;-61
2022/08/20 02:34:33;;;;;;;1.27;0.95;;;;;;;29.08;40.72;99318.16;5111019;28;20122;-67
2022/08/20 02:37:00;;;;;;;1.67;1.13;;;;;;;29.08;40.97;99313.34;5111084;28;20039;-61
2022/08/20 02:39:25;;;;;;;1.33;0.90;;;;;;;29.09;41.03;99314.91;5110905;28;20538;-67
2022/08/20 02:41:51;;;;;;;3.58;1.27;;;;;;;29.10;40.86;99318.53;5110915;28;20563;-61
2022/08/20 02:44:19;;;;;;;1.70;1.10;;;;;;;29.08;40.92;99309.69;5110700;28;20126;-61
2022/08/20 02:46:45;;;;;;;1.42;1.08;;;;;;;29.08;41.13;99315.34;5110751;28;20507;-67
2022/08/20 02:49:10;;;;;;;1.50;1.10;;;;;;;29.10;40.82;99315.72;5110805;28;20051;-67
2022/08/20 02:51:36;;;;;;;2.08;1.00;;;;;;;29.07;40.88;99311.72;5110789;28;20066;-61
2022/08/20 02:54:01;;;;;;;1.60;1.00;;;;;;;29.06;41.04;99310.94;5110634;28;20031;-61
2022/08/20 02:56:27;;;;;;;1.48;1.05;;;;;;;29.09;40.77;99309.28;5110798;28;20046;-61
2022/08/20 02:58:53;;;;;;;1.50;1.13;;;;;;;29.08;40.93;99301.25;5110773;28;20043;-67
2022/08/20 03:01:18;;;;;;;2.22;1.42;;;;;;;29.08;41.11;99299.25;5110732;28;20126;-61
2022/08/20 03:03:44;;;;;;;1.90;1.30;;;;;;;29.08;40.85;99304.06;5110742;28;20050;-61
2022/08/20 03:06:12;;;;;;;2.00;1.27;;;;;;;29.09;41.01;99300.03;5110651;28;20062;-67
2022/08/20 03:08:38;;;;;;;1.48;1.10;;;;;;;29.05;40.79;99291.66;5110406;28;20061;-67
2022/08/20 03:11:05;;;;;;;1.77;1.20;;;;;;;29.08;40.78;99301.25;5110385;28;20502;-61
2022/08/20 03:13:31;;;;;;;1.83;1.38;;;;;;;29.08;40.95;99296.44;5110449;28;20048;-67
2022/08/20 03:16:00;;;;;;;1.85;1.30;;;;;;;29.08;41.25;99298.44;5110554;28;20044;-67
2022/08/20 03:18:32;;;;;;;1.63;1.20;;;;;;;29.09;41.08;99298.03;5110333;28;20449;-67
2022/08/20 03:20:57;;;;;;;;;;;;;;;29.15;41.03;99306.72;5109048;28;20127;-61
2022/08/20 03:23:23;;;;;;;1.70;1.13;;;;;;;29.13;40.97;99297.94;5110225;28;20010;-67
2022/08/20 03:25:48;;;;;;;1.35;1.00;;;;;;;29.08;40.69;99296.44;5110213;28;20388;-67
2022/08/20 03:28:15;;;;;;;1.52;1.08;;;;;;;29.09;40.89;99305.69;5110171;28;20078;-61
2022/08/20 03:30:42;;;;;;;1.50;1.05;;;;;;;29.07;40.95;99297.63;5110066;28;20047;-61
2022/08/20 03:33:07;;;;;;;1.90;1.20;;;;;;;29.07;40.99;99308.91;5110096;28;20047;-67
2022/08/20 03:35:34;;;;;;;1.73;1.30;;;;;;;29.05;40.83;99303.72;5110215;28;20123;-67
2022/08/20 03:38:00;;;;;;;1.70;1.25;;;;;;;29.07;40.99;99306.09;5109953;28;20044;-67
2022/08/20 03:40:32;;;;;;;1.65;1.10;;;;;;;29.07;40.81;99306.09;5109926;28;20426;-61
2022/08/20 03:42:58;;;;;;;1.50;1.10;;;;;;;29.07;41.01;99300.47;5110003;28;20063;-61
2022/08/20 03:45:26;;;;;;;1.52;1.20;;;;;;;29.06;41.11;99310.13;5109933;28;20068;-67
2022/08/20 03:47:53;;;;;;;1.35;1.08;;;;;;;29.08;40.95;99315.34;5109903;28;20100;-67
2022/08/20 03:50:22;;;;;;;1.60;1.10;;;;;;;29.07;40.94;99314.53;5091552;28;20412;-67
2022/08/20 03:52:48;;;;;;;1.58;1.10;;;;;;;29.05;40.96;99312.16;5110016;28;20055;-61
2022/08/20 03:55:13;;;;;;;1.67;1.17;;;;;;;29.06;41.16;99308.13;5110109;28;20043;-61
2022/08/20 03:57:44;;;;;;;1.55;1.10;;;;;;;29.06;41.13;99319.38;5109749;28;20508;-61
2022/08/20 04:00:12;;;;;;;2.78;1.23;;;;;;;29.07;40.96;99314.53;5109493;28;20567;-61
2022/08/20 04:02:37;;;;;;;1.67;1.13;;;;;;;29.04;40.99;99312.59;5109742;28;20088;-61
2022/08/20 04:05:05;;;;;;;1.75;1.30;;;;;;;29.04;40.84;99319.03;5109721;28;20134;-61
2022/08/20 04:07:30;;;;;;;1.95;1.17;;;;;;;29.05;41.00;99325.44;5109307;28;20534;-61
2022/08/20 04:09:56;;;;;;;1.60;1.23;;;;;;;29.08;41.04;99326.59;5109727;28;20070;-61
2022/08/20 04:12:23;;;;;;;1.73;1.25;;;;;;;29.07;41.16;99323.00;5109450;28;20063;-61
2022/08/20 04:14:49;;;;;;;1.80;1.20;;;;;;;29.06;41.20;99327.81;5109648;28;20120;-67
2022/08/20 04:17:16;;;;;;;1.55;1.05;;;;;;;29.08;40.92;99329.41;5109473;28;20058;-67
2022/08/20 04:19:43;;;;;;;1.60;1.10;;;;;;;29.04;40.74;99330.28;5109410;28;20133;-61
2022/08/20 04:22:12;;;;;;;1.70;1.13;;;;;;;29.06;40.97;99333.47;5109173;28;20515;-61
2022/08/20 04:24:38;;;;;;;1.67;1.20;;;;;;;29.06;41.15;99327.81;5109743;28;20036;-67
2022/08/20 04:27:07;;;;;;;1.80;1.30;;;;;;;29.05;40.90;99320.63;5109450;28;20046;-67
2022/08/20 04:29:35;;;;;;;2.03;1.30;;;;;;;29.06;41.08;99324.22;5109452;28;20047;-67
2022/08/20 04:32:02;;;;;;;1.45;1.20;;;;;;;29.06;41.02;99316.56;5109555;28;20048;-67
2022/08/20 04:34:28;;;;;;;1.67;1.15;;;;;;;29.06;40.96;99316.56;5109383;28;20047;-67
2022/08/20 04:36:53;;;;;;;1.60;1.10;;;;;;;29.05;40.92;99314.97;5109108;28;20113;-67
2022/08/20 04:39:19;;;;;;;1.70;1.25;;;;;;;29.07;40.91;99325.81;5109110;28;20452;-61
2022/08/20 04:41:44;;;;;;;1.60;1.10;;;;;;;29.05;41.03;99320.63;5109352;28;20126;-61
2022/08/20 04:44:10;;;;;;;1.90;1.23;;;;;;;29.06;40.89;99319.38;5109550;28;20047;-67
2022/08/20 04:46:37;;;;;;;1.55;1.02;;;;;;;29.06;41.05;99325.00;5109278;28;20047;-67
2022/08/20 04:49:03;;;;;;;1.80;1.13;;;;;;;29.05;41.12;99317.78;5108820;28;20538;-61
2022/08/20 04:51:30;;;;;;;1.70;1.20;;;;;;;29.05;40.97;99317.78;5111367;28;20046;-67
2022/08/20 04:53:56;;;;;;;1.42;1.10;;;;;;;29.02;41.06;99318.69;5112905;28;20047;-61
2022/08/20 04:56:25;;;;;;;1.85;1.30;;;;;;;29.05;41.19;99337.50;5112757;28;20568;-67
2022/08/20 04:58:54;;;;;;;4.00;1.20;;;;;;;29.06;40.87;99339.09;5112580;28;20069;-67
2022/08/20 05:01:19;;;;;;;1.77;1.20;;;;;;;29.05;40.79;99343.13;5112691;28;20519;-67
2022/08/20 05:03:48;;;;;;;1.85;1.20;;;;;;;29.02;40.99;99344.03;5112577;28;20047;-67
2022/08/20 05:06:16;;;;;;;1.80;1.10;;;;;;;29.05;40.97;99343.13;5112414;28;20112;-67
2022/08/20 05:08:42;;;;;;;1.92;1.20;;;;;;;29.05;41.06;99343.13;5112353;28;20051;-67
2022/08/20 05:11:10;;;;;;;1.80;1.25;;;;;;;29.05;40.86;99347.97;5112452;28;20043;-61
2022/08/20 05:13:36;;;;;;;1.98;1.38;;;;;;;29.05;40.98;99343.13;5112357;28;20138;-67
2022/08/20 05:16:03;;;;;;;1.92;1.30;;;;;;;29.05;41.10;99345.16;5112277;28;20118;-67
2022/08/20 05:18:32;;;;;;;1.50;1.00;;;;;;;29.04;40.88;99349.22;5112405;28;20047;-61
2022/08/20 05:21:03;;;;;;;1.20;1.00;;;;;;;29.03;40.89;99351.25;5112294;28;20039;-61
2022/08/20 05:23:28;;;;;;;1.70;1.15;;;;;;;29.06;40.90;99349.56;5112142;28;20526;-67
2022/08/20 05:25:56;;;;;;;2.00;1.00;;;;;;;29.04;40.95;99352.81;5112166;28;20044;-67
2022/08/20 05:28:25;;;;;;;1.77;1.25;;;;;;;29.05;40.89;99362.84;5112064;28;20082;-67
2022/08/20 05:30:51;;;;;;;1.85;1.10;;;;;;;29.02;41.02;99358.09;5112012;28;20039;-61
2022/08/20 05:33:19;;;;;;;1.70;1.08;;;;;;;29.05;41.16;99370.50;5112034;28;20047;-61
2022/08/20 05:35:47;;;;;;;2.83;1.20;;;;;;;29.03;40.83;99362.50;5111850;28;20054;-61
2022/08/20 05:38:14;;;;;;;1.83;1.30;;;;;;;29.05;41.10;99374.13;5109563;28;20076;-61
2022/08/20 05:40:41;;;;;;;1.67;1.25;;;;;;;29.03;40.84;99373.78;5111909;28;20513;-61
2022/08/20 05:43:07;;;;;;;1.70;1.10;;;;;;;29.05;41.20;99379.75;5111988;28;20043;-67
2022/08/20 05:45:38;;;;;;;1.90;1.30;;;;;;;29.06;40.95;99389.00;5111937;28;20054;-67
2022/08/20 05:48:10;;;;;;;1.67;1.15;;;;;;;29.04;40.97;99388.63;5111851;28;20051;-61
2022/08/20 05:50:37;;;;;;;1.75;1.10;;;;;;;29.03;40.83;99393.47;5111864;28;20055;-67
2022/08/20 05:53:03;;;;;;;1.80;1.30;;;;;;;29.06;41.11;99401.06;5111771;28;20072;-67
2022/08/20 05:55:29;;;;;;;2.13;1.40;;;;;;;29.06;40.85;99403.06;5111650;28;20059;-67
2022/08/20 05:58:00;;;;;;;1.55;1.02;;;;;;;29.05;41.17;99390.22;5111694;28;20430;-61
2022/08/20 06:00:27;;;;;;;1.60;1.15;;;;;;;29.07;40.94;99401.84;5111718;28;20056;-61
2022/08/20 06:05:38;;;;;;;1.60;1.10;;;;;;;28.76;41.45;99398.38;5111724;28;20514;-61
2022/08/20 06:08:08;;;;;;;1.77;1.10;;;;;;;28.55;41.18;99388.31;5111472;28;20055;-67
2022/08/20 06:10:35;;;;;;;2.33;1.30;;;;;;;28.41;41.66;99402.63;5111388;28;20035;-61
2022/08/20 06:13:01;;;;;;;1.70;1.13;;;;;;;28.23;42.35;99391.63;5111436;28;20044;-61
2022/08/20 06:15:31;;;;;;;1.63;1.15;;;;;;;28.23;42.55;99405.69;5111582;28;20056;-61
2022/08/20 06:17:57;;;;;;;1.90;1.20;;;;;;;28.20;42.73;99395.28;5111673;28;20097;-61
2022/08/20 06:20:24;;;;;;;1.52;1.13;;;;;;;28.20;42.61;99395.28;5111274;28;20094;-61
2022/08/20 06:22:49;;;;;;;1.50;1.10;;;;;;;28.14;42.81;99385.72;5111234;28;20047;-61
2022/08/20 06:25:15;;;;;;;2.20;1.33;;;;;;;28.16;42.44;99388.94;5111215;28;20047;-61
2022/08/20 06:27:41;;;;;;;2.20;1.30;;;;;;;28.17;42.74;99384.91;5111309;28;20039;-67
2022/08/20 06:30:09;;;;;;;2.35;1.33;;;;;;;28.16;42.48;99383.31;5111137;28;20039;-67
2022/08/20 06:32:35;;;;;;;1.70;1.20;;;;;;;28.17;42.52;99382.88;5111226;28;20051;-67
2022/08/20 06:35:02;;;;;;;1.85;1.30;;;;;;;28.23;42.34;99384.00;5111101;28;20122;-61
2022/08/20 06:37:30;;;;;;;2.50;1.33;;;;;;;28.22;42.32;99378.81;5111122;28;20040;-67
2022/08/20 06:39:59;;;;;;;1.88;1.30;;;;;;;28.13;42.49;99375.72;5111174;28;20050;-67
2022/08/20 06:42:25;;;;;;;1.67;1.15;;;;;;;28.12;42.60;99383.34;5111124;28;20048;-61
2022/08/20 06:44:52;;;;;;;1.73;1.10;;;;;;;28.14;42.36;99377.28;5111035;28;20071;-67
2022/08/20 06:47:19;;;;;;;1.30;0.90;;;;;;;28.12;42.37;99376.94;5110628;28;20122;-67
2022/08/20 06:49:46;;;;;;;1.73;1.20;;;;;;;28.12;42.45;99385.38;5110952;28;20071;-67
2022/08/20 06:52:13;;;;;;;1.80;1.15;;;;;;;28.15;42.51;99381.72;5111094;28;20096;-67
2022/08/20 06:54:38;;;;;;;1.77;1.23;;;;;;;28.14;42.23;99383.72;5110852;28;20039;-61
2022/08/20 06:57:04;;;;;;;2.08;1.30;;;;;;;28.05;42.43;99379.84;5110524;28;20092;-61
2022/08/20 06:59:29;;;;;;;1.55;1.08;;;;;;;28.13;42.45;99389.78;5110813;28;20533;-66
2022/08/20 07:01:55;;;;;;;1.92;1.20;;;;;;;28.12;42.07;99391.00;5110686;28;20036;-67
2022/08/20 07:04:26;;;;;;;1.60;1.10;;;;;;;28.17;42.15;99385.69;5110599;28;20511;-61
2022/08/20 07:06:56;;;;;;;1.77;1.20;;;;;;;28.14;41.96;99391.34;5110678;28;20054;-67
2022/08/20 07:09:24;;;;;;;2.00;1.30;;;;;;;28.10;42.09;99391.44;5110434;28;20507;-60
2022/08/20 07:11:49;;;;;;;1.40;1.10;;;;;;;28.05;42.27;99388.28;5110509;28;20050;-61
2022/08/20 07:14:17;;;;;;;1.73;1.23;;;;;;;28.07;42.05;99397.88;5110157;28;20051;-61
2022/08/20 07:16:42;;;;;;;1.55;1.20;;;;;;;28.12;41.92;99396.63;5110683;28;20596;-61
2022/08/20 07:19:08;;;;;;;1.60;1.10;;;;;;;28.09;41.95;99400.31;5110281;28;20126;-67
2022/08/20 07:21:34;;;;;;;1.48;1.02;;;;;;;28.05;41.89;99402.34;5110154;28;20048;-67
2022/08/20 07:23:59;;;;;;;1.50;1.00;;;;;;;28.10;41.80;99397.06;5110225;28;20093;-61
2022/08/20 07:26:26;;;;;;;1.65;1.02;;;;;;;28.12;41.82;99399.44;5110415;28;20039;-66
2022/08/20 07:28:52;;;;;;;1.42;1.00;;;;;;;28.03;41.92;99402.00;5110379;28;20047;-61
2022/08/20 07:34:02;;;;;;;2.10;1.20;;;;;;;28.06;41.72;99404.72;5110404;28;20510;-61
2022/08/20 07:36:27;;;;;;;1.30;1.00;;;;;;;27.99;41.74;99399.22;5110248;28;20055;-61
2022/08/20 07:38:53;;;;;;;1.70;1.15;;;;;;;28.05;41.60;99403.16;5110271;28;20040;-61
2022/08/20 07:41:19;;;;;;;1.80;1.15;;;;;;;28.01;41.51;99396.81;5110165;28;20453;-67
2022/08/20 07:43:46;;;;;;;1.45;1.15;;;;;;;28.03;41.36;99396.38;5109874;28;20051;-61
2022/08/20 07:46:14;;;;;;;1.55;1.08;;;;;;;27.96;41.69;99398.06;5110072;28;20043;-61
2022/08/20 07:48:45;;;;;;;1.50;1.10;;;;;;;27.93;41.80;99396.13;5110017;28;20579;-61
2022/08/20 07:51:13;;;;;;;1.60;1.02;;;;;;;27.89;41.80;99400.97;5109838;28;20048;-61
2022/08/20 07:53:40;;;;;;;1.60;1.02;;;;;;;27.91;41.98;99411.78;5109718;28;20100;-61
2022/08/20 07:56:09;;;;;;;1.83;1.10;;;;;;;27.86;42.22;99410.28;5109879;28;20535;-61
2022/08/20 07:58:37;;;;;;;1.20;0.90;;;;;;;27.85;42.31;99408.66;5107704;28;20055;-61
2022/08/20 08:01:04;;;;;;;1.42;1.10;;;;;;;27.93;42.25;99410.16;5109754;28;20050;-67
2022/08/20 08:03:30;;;;;;;2.22;1.17;;;;;;;27.97;42.15;99402.47;5109787;28;20047;-67
2022/08/20 08:05:56;;;;;;;1.90;1.23;;;;;;;28.02;41.91;99400.41;5109737;28;20084;-60
2022/08/20 08:08:27;;;;;;;1.60;1.13;;;;;;;28.06;42.05;99406.75;5109619;28;20147;-61
2022/08/20 08:10:58;;;;;;;1.70;1.10;;;;;;;28.06;42.03;99407.56;5109707;28;20503;-61
2022/08/20 08:13:26;;;;;;;1.70;1.10;;;;;;;28.04;42.06;99392.34;5109602;28;20072;-61
2022/08/20 08:15:56;;;;;;;1.45;1.00;;;;;;;28.08;41.98;99399.50;5109683;28;20044;-66
2022/08/20 08:18:25;;;;;;;1.65;1.20;;;;;;;28.11;42.00;99404.25;5109485;28;20050;-67
2022/08/20 08:20:52;;;;;;;1.05;0.82;;;;;;;28.14;41.85;99402.59;5109691;28;20047;-60
2022/08/20 08:23:22;;;;;;;1.42;1.08;;;;;;;28.14;41.82;99408.22;5109510;28;20097;-67
2022/08/20 08:25:50;;;;;;;1.20;1.00;;;;;;;28.15;41.85;99402.22;5110765;28;20051;-61
2022/08/20 08:28:17;;;;;;;1.40;1.10;;;;;;;28.16;42.00;99405.81;5112835;28;20090;-61
2022/08/20 08:30:44;;;;;;;1.63;1.13;;;;;;;28.14;42.10;99408.22;5113047;28;20148;-61
2022/08/20 08:33:28;;;;;;;1.50;1.08;;;;;;;28.13;41.89;99404.63;5113273;28;20132;-61
2022/08/20 08:36:03;;;;;;;1.73;1.23;;;;;;;28.18;41.97;99409.00;5113173;28;20329;-61
2022/08/20 08:38:33;;;;;;;1.65;1.20;;;;;;;28.18;41.89;99409.00;5112794;28;20047;-61
2022/08/20 08:41:24;;;;;;;1.70;0.90;;;;;;;28.16;41.97;99411.44;5112748;28;20052;-61
2022/08/20 08:43:52;;;;;;;1.13;0.80;;;;;;;28.11;41.98;99400.66;5112697;28;20048;-67
2022/08/20 08:46:22;;;;;;;1.67;1.05;;;;;;;28.07;42.21;99397.09;5112783;28;20067;-67
2022/08/20 08:48:52;;;;;;;1.65;1.27;;;;;;;28.08;42.29;99398.72;5112697;28;20043;-61
2022/08/20 08:51:28;;;;;;;1.63;0.98;;;;;;;28.09;42.07;99403.91;5112615;28;20653;-67
2022/08/20 08:53:55;;;;;;;1.73;1.10;;;;;;;28.10;42.02;99393.44;5112741;28;20051;-67
2022/08/20 08:56:28;;;;;;;1.52;1.00;;;;;;;28.06;42.07;99387.06;5112790;28;20122;-60
2022/08/20 08:58:59;;;;;;;1.45;1.08;;;;;;;28.13;41.87;99395.41;5112721;28;20051;-61
2022/08/20 09:01:25;;;;;;;1.80;0.90;;;;;;;28.10;42.14;99394.25;5112760;28;20048;-61
2022/08/20 09:03:51;;;;;;;1.63;1.10;;;;;;;28.07;42.36;99388.66;5112700;28;20047;-67
2022/08/20 09:06:21;;;;;;;1.73;1.10;;;;;;;28.09;42.31;99389.06;5112504;28;20069;-67
2022/08/20 09:08:50;;;;;;;2.42;0.90;;;;;;;28.14;42.04;99382.91;5112376;28;20587;-67
2022/08/20 09:11:18;;;;;;;1.50;1.10;;;;;;;28.11;42.22;99383.78;5112560;28;20430;-60
2022/08/20 09:13:43;;;;;;;1.23;0.90;;;;;;;28.11;42.30;99380.97;5112534;28;20043;-61
2022/08/20 09:16:10;;;;;;;1.42;1.00;;;;;;;28.09;42.35;99375.00;5112271;28;20117;-67
2022/08/20 09:18:36;;;;;;;1.70;1.20;;;;;;;28.18;42.21;99383.69;5112171;28;20052;-61
2022/08/20 09:21:01;;;;;;;1.50;1.02;;;;;;;28.16;42.20;99381.28;5112331;28;20044;-61
2022/08/20 09:23:26;;;;;;;1.95;1.05;;;;;;;28.11;42.04;99375.34;5112279;28;20048;-61
2022/08/20 09:25:52;;;;;;;1.55;1.10;;;;;;;28.19;42.12;99382.44;5112108;28;20131;-67
2022/08/20 09:28:17;;;;;;;1.38;1.00;;;;;;;28.19;42.09;99382.44;5112144;28;20039;-61
2022/08/20 09:30:43;;;;;;;1.50;1.08;;;;;;;28.18;42.11;99383.69;5111986;28;20040;-61
2022/08/20 09:33:08;;;;;;;1.58;1.05;;;;;;;28.18;42.30;99380.88;5112265;28;20515;-67
2022/08/20 09:35:36;;;;;;;1.50;0.90;;;;;;;28.18;42.11;99380.88;5112062;28;20048;-61
2022/08/20 09:38:03;;;;;;;1.40;1.00;;;;;;;28.17;42.07;99368.81;5111597;28;20507;-67
2022/08/20 09:40:28;;;;;;;1.88;1.23;;;;;;;28.20;42.04;99367.16;5111946;28;20075;-67
2022/08/20 09:42:54;;;;;;;1.42;1.00;;;;;;;28.18;42.12;99364.00;5111772;28;20066;-67
2022/08/20 09:45:19;;;;;;;1.63;1.10;;;;;;;28.22;41.95;99361.94;5111872;28;20093;-67
2022/08/20 09:47:45;;;;;;;1.20;0.90;;;;;;;28.22;41.94;99356.31;5111859;28;20047;-67
2022/08/20 09:50:10;;;;;;;1.40;1.00;;;;;;;28.22;41.91;99359.91;5111736;28;20060;-61
2022/08/20 09:52:44;;;;;;;1.40;1.02;;;;;;;28.25;41.84;99353.41;5111740;28;20035;-66
2022/08/20 09:55:12;;;;;;;1.65;0.90;;;;;;;28.25;41.85;99347.78;5111649;28;20054;-67
2022/08/20 09:57:37;;;;;;;1.42;0.95;;;;;;;28.23;41.87;99347.44;5111797;28;20093;-67
2022/08/20 10:00:15;;;;;;;1.50;1.00;;;;;;;28.21;41.79;99349.06;5111860;28;20048;-67
2022/08/20 10:02:41;;;;;;;1.27;0.90;;;;;;;28.27;41.91;99347.34;5111719;28;20047;-61
2022/08/20 10:05:08;;;;;;;1.27;0.93;;;;;;;28.26;41.82;99342.94;5111689;28;20100;-67
2022/08/20 10:07:34;;;;;;;1.38;0.98;;;;;;;28.22;42.09;99345.03;5111557;28;20089;-61
2022/08/20 10:10:01;;;;;;;1.70;1.00;;;;;;;28.22;41.80;99339.41;5111313;28;20101;-61
2022/08/20 10:12:26;;;;;;;1.20;0.90;;;;;;;28.21;41.99;99340.63;5111645;28;20130;-61
2022/08/20 10:14:54;;;;;;;1.25;0.95;;;;;;;28.18;42.06;99338.69;5111512;28;20040;-67
2022/08/20 10:17:20;;;;;;;1.58;1.00;;;;;;;28.18;42.09;99333.84;5111475;28;20130;-61
2022/08/20 10:19:45;;;;;;;1.10;0.82;;;;;;;28.20;41.86;99330.59;5111199;28;20181;-67
2022/08/20 10:22:10;;;;;;;1.25;0.90;;;;;;;28.16;42.02;99325.03;5111288;28;20040;-67
2022/08/20 10:24:36;;;;;;;1.88;1.02;;;;;;;28.23;41.99;99326.94;5111016;28;20418;-67
2022/08/20 10:27:01;;;;;;;1.13;0.80;;;;;;;28.19;41.97;99324.19;5110998;28;20036;-61
2022/08/20 10:29:28;;;;;;;1.23;0.90;;;;;;;28.15;42.16;99322.66;5111168;28;20051;-61
2022/08/20 10:31:55;;;;;;;1.35;1.00;;;;;;;28.17;42.04;99311.78;5111258;28;20499;-61
2022/08/20 10:34:22;;;;;;;1.20;0.90;;;;;;;28.20;42.08;99313.72;5111061;28;20089;-67
2022/08/20 10:36:48;;;;;;;1.42;1.10;;;;;;;28.18;41.79;99314.16;5111170;28;20412;-67
2022/08/20 10:39:14;;;;;;;1.33;0.93;;;;;;;28.17;41.96;99309.75;5111189;28;20050;-67
2022/08/20 10:41:39;;;;;;;1.60;1.00;;;;;;;28.23;41.69;99304.44;5111124;28;20044;-67
2022/08/20 10:44:05;;;;;;;1.70;1.02;;;;;;;28.20;41.94;99302.47;5110959;28;20073;-67
2022/08/20 10:46:30;;;;;;;1.55;1.00;;;;;;;28.18;41.88;99304.94;5110875;28;20043;-61
2022/08/20 10:48:56;;;;;;;1.30;0.85;;;;;;;28.19;41.89;99300.88;5110089;28;20051;-61
2022/08/20 10:51:21;;;;;;;1.52;0.95;;;;;;;28.16;42.19;99294.09;5110850;28;20138;-61
2022/08/20 10:53:46;;;;;;;1.30;0.90;;;;;;;28.19;41.90;99293.25;5110900;28;20048;-61
2022/08/20 10:56:12;;;;;;;1.02;0.90;;;;;;;28.16;41.93;99279.25;5110832;28;20066;-67
2022/08/20 10:58:37;;;;;;;1.20;0.90;;;;;;;28.17;41.82;99278.03;5110791;28;20134;-67
2022/08/20 11:01:02;;;;;;;1.13;0.82;;;;;;;28.16;41.93;99282.84;5110404;28;20047;-61
2022/08/20 11:03:28;;;;;;;1.60;1.00;;;;;;;28.20;41.96;99277.94;5110600;28;20040;-67
2022/08/20 11:05:53;;;;;;;1.77;1.02;;;;;;;28.21;41.73;99278.75;5110485;28;20059;-67
2022/08/20 11:08:21;;;;;;;1.33;0.95;;;;;;;28.17;42.02;99266.78;5110477;28;20134;-67
2022/08/20 11:10:47;;;;;;;1.00;0.80;;;;;;;28.25;41.81;99274.66;5110560;28;20176;-67
2022/08/20 11:13:12;;;;;;;1.38;1.00;;;;;;;28.27;41.65;99270.63;5110167;28;20516;-67
2022/08/20 11:15:41;;;;;;;1.33;0.93;;;;;;;28.30;41.76;99267.78;5110234;28;20058;-61
2022/08/20 11:18:08;;;;;;;1.23;0.90;;;;;;;28.26;41.99;99264.19;5110475;28;20118;-67
2022/08/20 11:20:33;;;;;;;1.40;1.00;;;;;;;28.23;41.95;99262.25;5110345;28;20035;-67
2022/08/20 11:22:59;;;;;;;1.25;0.85;;;;;;;28.22;42.07;99263.47;5110504;28;20050;-67
2022/08/20 11:25:25;;;;;;;1.40;0.95;;;;;;;28.25;41.81;99260.59;5110197;28;20063;-67
2022/08/20 11:27:51;;;;;;;1.27;0.88;;;;;;;28.27;41.96;99260.16;5110250;28;20464;-61
2022/08/20 11:30:33;;;;;;;1.48;0.95;;;;;;;28.26;41.77;99255.75;5110229;28;20051;-61
2022/08/20 11:32:59;;;;;;;1.25;0.82;;;;;;;28.26;41.94;99244.50;5110138;28;20047;-67
2022/08/20 11:35:27;;;;;;;1.10;0.88;;;;;;;28.21;41.96;99256.25;5110047;28;20050;-67
2022/08/20 11:37:54;;;;;;;1.80;1.15;;;;;;;28.23;41.93;99251.00;5110031;28;20043;-61
2022/08/20 11:40:20;;;;;;;1.50;1.00;;;;;;;28.27;41.88;99245.28;5110247;28;20048;-61
2022/08/20 11:42:46;;;;;;;1.73;1.08;;;;;;;28.25;41.90;99240.09;5110095;28;20176;-67